Eagle, Alaska
Current Conditions -  °F | °C
As of 10:53 AM on Friday 31 Oct 2014 (Local Time) from PAEG Reporting Station
Light Snow Light Snow  
Wind Chill:   Ceiling: 4800
Heat Index: 14°   Visibility: 5mi
Dew Point:   Wind: 5mph
Humidity: 77%   Direction: 260°W
Pressure: 29.45"   Gusts: NA
Location:  64.78°N, 141.21°W
Report Text: PAEG 311853Z AUTO 26004KT 5SM -SN BKN048 OVC060 M10/M13 A2945 RMK AO2 SLP990 P0000 T11001133 TSNO $
Loading
Personal Weather Stations






























Interactive Weather Map
Tropical Storm Tracking
New forecast layout! Learn more

10-Day Weather Forecast

Advertisements
Track Severe Weather on mobile